Time;durP1;ratioP1;P1;durP2;ratioP2;P2;SDS_P1;SDS_P2;PMS_P1;PMS_P2;Temp;Humidity;BMP_temperature;BMP_pressure;BME280_temperature;BME280_humidity;BME280_pressure;Samples;Min_cycle;Max_cycle;Signal;HPM_P1;HPM_P2
2023/11/22 00:02:34;;;;;;;31.30;22.10;;;;;;;0.82;90.70;99059.13;221499;1298;26240;-76
2023/11/22 00:07:40;;;;;;;28.00;19.80;;;;;;;0.82;90.87;99060.52;221722;1284;25370;-77
2023/11/22 00:12:42;;;;;;;29.30;19.80;;;;;;;0.80;90.88;99060.84;221610;1301;22602;-77
2023/11/22 00:17:45;;;;;;;28.30;18.50;;;;;;;0.77;90.53;99073.57;221565;1301;22621;-77
2023/11/22 00:22:47;;;;;;;27.90;18.00;;;;;;;0.71;90.69;99081.86;221540;1299;22671;-77
2023/11/22 00:27:49;;;;;;;22.80;16.40;;;;;;;0.66;90.60;99082.06;221658;1298;22571;-77
2023/11/22 00:32:52;;;;;;;27.50;17.60;;;;;;;0.60;90.68;99080.41;221530;1301;24289;-76
2023/11/22 00:37:54;;;;;;;28.70;20.00;;;;;;;0.52;90.27;99089.17;221639;1301;26089;-76
2023/11/22 00:43:00;;;;;;;31.20;21.20;;;;;;;0.40;90.32;99095.85;221482;1303;22596;-76
2023/11/22 00:48:03;;;;;;;27.20;18.40;;;;;;;0.28;90.33;99104.05;221544;1298;25861;-76
2023/11/22 00:53:05;;;;;;;29.80;20.00;;;;;;;0.21;90.26;99112.34;221484;1301;22630;-76
2023/11/22 00:58:07;;;;;;;31.70;20.70;;;;;;;0.16;90.51;99111.45;221408;1301;22593;-76
2023/11/22 01:03:11;;;;;;;32.00;22.50;;;;;;;0.14;90.52;99118.10;221519;1303;22594;-76
2023/11/22 01:08:15;;;;;;;31.40;20.10;;;;;;;0.14;90.49;99114.98;221466;1303;22619;-76
2023/11/22 01:13:17;;;;;;;25.30;17.70;;;;;;;0.13;90.73;99117.96;221656;1301;22604;-76
2023/11/22 01:18:20;;;;;;;33.10;21.00;;;;;;;0.14;90.82;99119.77;221503;1303;24238;-77
2023/11/22 01:23:22;;;;;;;31.80;21.20;;;;;;;0.18;90.82;99122.08;221644;1301;26223;-76
2023/11/22 01:28:27;;;;;;;32.60;20.30;;;;;;;0.21;90.75;99121.65;221670;1301;22548;-77
2023/11/22 01:33:31;;;;;;;39.40;24.60;;;;;;;0.15;90.47;99122.16;221724;1302;22586;-76
2023/11/22 01:38:34;;;;;;;31.80;19.90;;;;;;;0.07;89.80;99125.72;221436;1303;22610;-76
2023/11/22 01:43:39;;;;;;;35.80;23.00;;;;;;;-0.01;90.32;99131.45;221579;1300;22663;-76
2023/11/22 01:48:42;;;;;;;35.90;22.40;;;;;;;-0.05;90.42;99132.25;221466;1281;232938;-76
2023/11/22 01:53:47;;;;;;;38.40;24.10;;;;;;;-0.07;90.23;99137.43;221456;1303;22587;-76
2023/11/22 01:58:50;;;;;;;39.70;26.10;;;;;;;-0.04;90.60;99144.63;221473;1303;22586;-75
2023/11/22 02:03:53;;;;;;;39.70;25.40;;;;;;;0.01;90.59;99148.84;221494;1301;22933;-76
2023/11/22 02:08:56;;;;;;;41.60;26.00;;;;;;;0.06;90.67;99157.28;221448;1303;22571;-75
2023/11/22 02:13:58;;;;;;;39.70;25.90;;;;;;;0.06;90.73;99161.77;221530;1301;22582;-75
2023/11/22 02:19:00;;;;;;;35.10;24.00;;;;;;;0.04;90.26;99169.70;221671;1298;23049;-75
2023/11/22 02:24:03;;;;;;;44.00;28.10;;;;;;;0.00;90.08;99178.64;221531;1303;22579;-74
2023/11/22 02:29:05;;;;;;;42.00;26.90;;;;;;;-0.01;90.36;99184.45;221723;1301;22582;-75
2023/11/22 02:34:08;;;;;;;47.80;29.50;;;;;;;-0.01;90.07;99183.27;221641;1297;23006;-75
2023/11/22 02:39:10;;;;;;;44.90;28.60;;;;;;;-0.05;89.95;99179.54;221278;1303;22598;-75
2023/11/22 02:44:17;;;;;;;44.20;28.90;;;;;;;-0.07;89.93;99191.78;221639;1301;22658;-75
2023/11/22 02:49:19;;;;;;;35.90;21.00;;;;;;;-0.07;89.72;99194.42;221572;1303;22579;-76
2023/11/22 02:54:21;;;;;;;36.70;23.90;;;;;;;-0.12;89.81;99198.38;221745;1302;23080;-76
2023/11/22 02:59:24;;;;;;;34.40;22.70;;;;;;;-0.18;89.72;99198.71;221556;1303;23025;-76
2023/11/22 03:04:26;;;;;;;35.30;23.00;;;;;;;-0.24;89.48;99206.03;221508;1303;22582;-75
2023/11/22 03:09:29;;;;;;;37.80;24.50;;;;;;;-0.27;89.86;99222.16;221407;1301;22638;-75
2023/11/22 03:14:31;;;;;;;39.50;23.30;;;;;;;-0.24;89.82;99234.78;221547;1303;22621;-75
2023/11/22 03:19:34;;;;;;;31.50;21.30;;;;;;;-0.18;89.95;99244.91;221763;1301;22564;-75
2023/11/22 03:24:38;;;;;;;33.70;21.60;;;;;;;-0.17;89.87;99256.74;221746;1301;22749;-75
2023/11/22 03:29:40;;;;;;;32.70;22.50;;;;;;;-0.16;89.49;99262.27;221581;1301;22798;-75
2023/11/22 03:34:42;;;;;;;32.70;21.70;;;;;;;-0.18;89.40;99277.30;221246;1303;22644;-75
2023/11/22 03:39:48;;;;;;;35.20;23.50;;;;;;;-0.20;89.62;99282.81;221627;1303;22597;-76
2023/11/22 03:44:50;;;;;;;36.20;24.10;;;;;;;-0.19;89.41;99291.54;221509;1303;22575;-76
2023/11/22 03:49:53;;;;;;;37.40;24.40;;;;;;;-0.20;89.28;99298.88;221722;1300;22601;-76
2023/11/22 03:54:57;;;;;;;41.60;26.10;;;;;;;-0.18;89.15;99314.68;221573;1301;22646;-76
2023/11/22 03:59:59;;;;;;;44.50;28.20;;;;;;;-0.22;89.16;99319.29;221709;1298;22671;-75
2023/11/22 04:05:01;;;;;;;50.60;30.10;;;;;;;-0.27;89.38;99326.19;221693;1301;22564;-75
2023/11/22 04:10:03;;;;;;;46.90;29.10;;;;;;;-0.29;89.29;99336.55;221487;1303;22630;-75
2023/11/22 04:15:08;;;;;;;46.70;29.90;;;;;;;-0.30;89.43;99348.77;221200;1303;22616;-75
2023/11/22 04:20:14;;;;;;;39.90;25.90;;;;;;;-0.34;89.22;99350.88;221423;1303;22547;-76
2023/11/22 04:25:17;;;;;;;37.40;24.20;;;;;;;-0.38;89.07;99364.64;221359;1303;22722;-75
2023/11/22 04:30:20;;;;;;;36.20;24.00;;;;;;;-0.43;88.79;99379.86;221546;1301;22714;-75
2023/11/22 04:35:22;;;;;;;32.70;22.20;;;;;;;-0.51;88.74;99393.59;221574;1298;22567;-77
2023/11/22 04:40:24;;;;;;;30.60;21.20;;;;;;;-0.56;88.74;99405.01;221550;1298;26820;-76
2023/11/22 04:45:27;;;;;;;26.80;18.50;;;;;;;-0.62;88.90;99408.34;221485;1303;22600;-75
2023/11/22 04:50:29;;;;;;;28.40;19.00;;;;;;;-0.66;88.62;99419.00;221587;1301;22582;-75
2023/11/22 04:55:31;;;;;;;23.20;16.50;;;;;;;-0.69;88.81;99424.70;221401;1303;22600;-75
2023/11/22 05:00:33;;;;;;;22.90;15.70;;;;;;;-0.76;88.55;99436.39;221488;1303;22769;-77
2023/11/22 05:05:35;;;;;;;27.80;18.10;;;;;;;-0.85;88.53;99443.04;221560;1288;22777;-76
2023/11/22 05:10:37;;;;;;;26.40;17.70;;;;;;;-0.84;88.84;99444.58;221427;1303;22624;-76
2023/11/22 05:15:40;;;;;;;27.70;17.40;;;;;;;-0.77;88.85;99444.62;221545;1301;22573;-76
2023/11/22 05:20:43;;;;;;;27.70;17.80;;;;;;;-0.70;89.34;99457.81;221194;1303;22572;-76
2023/11/22 05:25:45;;;;;;;24.90;16.80;;;;;;;-0.62;88.92;99458.84;221405;1303;22584;-77
2023/11/22 05:30:48;;;;;;;24.00;17.60;;;;;;;-0.60;88.78;99461.66;221530;1301;24443;-76
2023/11/22 05:35:50;;;;;;;26.20;18.20;;;;;;;-0.68;88.18;99467.54;221501;1303;25343;-76
2023/11/22 05:40:52;;;;;;;27.80;19.00;;;;;;;-0.75;88.30;99485.79;221430;1288;22587;-76
2023/11/22 05:45:54;;;;;;;25.90;18.40;;;;;;;-0.80;88.30;99487.71;221571;1303;22578;-76
2023/11/22 05:50:56;;;;;;;35.70;23.50;;;;;;;-0.84;88.06;99490.56;221170;1303;22586;-76
2023/11/22 05:55:59;;;;;;;31.40;19.80;;;;;;;-0.84;88.66;99494.54;221635;1303;22673;-75
2023/11/22 06:01:02;;;;;;;24.80;16.40;;;;;;;-0.82;88.57;99507.00;221408;1294;22608;-75
2023/11/22 06:06:04;;;;;;;27.60;19.80;;;;;;;-0.85;88.13;99517.09;221553;1301;22568;-75
2023/11/22 06:11:07;;;;;;;23.40;15.50;;;;;;;-0.86;88.20;99515.59;221509;1301;25316;-75
2023/11/22 06:16:09;;;;;;;25.70;17.10;;;;;;;-0.88;88.30;99523.48;221747;1298;24337;-76
2023/11/22 06:21:12;;;;;;;28.00;18.70;;;;;;;-0.90;87.96;99532.07;221363;1303;22571;-76
2023/11/22 06:26:14;;;;;;;29.50;18.80;;;;;;;-0.90;88.16;99533.13;221494;1303;22739;-76
2023/11/22 06:31:17;;;;;;;29.50;18.80;;;;;;;-0.91;87.97;99537.54;221399;1298;22712;-76
2023/11/22 06:36:19;;;;;;;23.80;14.70;;;;;;;-0.89;88.08;99535.02;221381;1295;22763;-75
2023/11/22 06:41:21;;;;;;;22.40;12.70;;;;;;;-0.90;88.16;99540.05;221498;1303;23006;-75
2023/11/22 06:46:24;;;;;;;24.60;17.10;;;;;;;-0.90;87.94;99549.95;221617;1301;25492;-75
2023/11/22 06:51:26;;;;;;;23.00;16.60;;;;;;;-0.92;87.60;99554.35;221380;1292;22577;-77
2023/11/22 06:56:29;;;;;;;25.10;17.90;;;;;;;-0.89;87.97;99565.95;221119;1291;22672;-77
2023/11/22 07:01:32;;;;;;;27.10;18.30;;;;;;;-0.88;87.87;99577.48;220657;1285;22555;-77
2023/11/22 07:06:37;;;;;;;26.20;17.80;;;;;;;-0.91;87.40;99572.98;220933;1287;22582;-79
2023/11/22 07:11:40;;;;;;;29.10;18.30;;;;;;;-0.90;87.72;99583.95;220984;1286;22587;-78
2023/11/22 07:16:42;;;;;;;28.70;18.20;;;;;;;-0.87;87.51;99601.05;220942;1285;22583;-78
2023/11/22 07:21:48;;;;;;;26.50;18.00;;;;;;;-0.85;87.74;99602.66;221178;1282;22580;-78
2023/11/22 07:26:51;;;;;;;25.40;14.80;;;;;;;-0.80;87.70;99612.73;221268;1283;22578;-78
2023/11/22 07:31:53;;;;;;;23.20;15.00;;;;;;;-0.75;87.65;99621.77;220933;1287;22768;-78
2023/11/22 07:36:58;;;;;;;25.00;16.50;;;;;;;-0.68;87.61;99630.48;220574;1282;22587;-76
2023/11/22 07:42:08;;;;;;;23.50;14.70;;;;;;;-0.64;87.22;99639.39;221077;1296;22622;-78
2023/11/22 07:47:10;;;;;;;27.70;15.60;;;;;;;-0.61;87.28;99642.49;220730;1285;23130;-78
2023/11/22 07:52:13;;;;;;;27.90;16.50;;;;;;;-0.57;87.13;99634.80;220817;1297;23388;-78
2023/11/22 07:57:16;;;;;;;26.10;16.60;;;;;;;-0.58;87.33;99631.77;220629;1280;23355;-78
2023/11/22 08:02:18;;;;;;;26.90;17.20;;;;;;;-0.56;87.18;99647.72;220598;1297;24781;-75
2023/11/22 08:07:22;;;;;;;22.00;15.70;;;;;;;-0.52;86.98;99660.27;220515;1282;23063;-82
2023/11/22 08:12:27;;;;;;;22.10;13.80;;;;;;;-0.50;86.75;99665.14;220391;1295;25559;-78
2023/11/22 08:17:32;;;;;;;20.50;13.90;;;;;;;-0.46;86.84;99660.89;220724;1289;25290;-77
2023/11/22 08:22:35;;;;;;;16.20;11.50;;;;;;;-0.42;86.58;99661.33;221119;1296;24654;-75
2023/11/22 08:27:37;;;;;;;17.40;12.60;;;;;;;-0.39;86.45;99660.98;221096;1280;22569;-79
2023/11/22 08:32:44;;;;;;;30.70;18.80;;;;;;;-0.35;86.45;99672.53;220798;1282;22583;-76
2023/11/22 08:37:47;;;;;;;22.40;12.90;;;;;;;-0.32;86.39;99680.27;220784;1289;22583;-76
2023/11/22 08:42:49;;;;;;;22.50;13.50;;;;;;;-0.26;86.29;99694.61;220701;1282;25491;-76
2023/11/22 08:47:52;;;;;;;18.60;12.70;;;;;;;-0.23;85.89;99692.67;220571;1280;22821;-78
2023/11/22 08:52:54;;;;;;;17.90;11.70;;;;;;;-0.21;85.74;99702.11;220649;1282;23003;-83
2023/11/22 08:57:58;;;;;;;19.00;12.90;;;;;;;-0.24;85.91;99696.56;220372;1292;22610;-78
2023/11/22 09:03:03;;;;;;;17.10;12.00;;;;;;;-0.23;85.59;99699.40;220482;1296;22644;-77
2023/11/22 09:08:05;;;;;;;18.00;11.80;;;;;;;-0.24;85.84;99708.52;220916;1298;22576;-77
2023/11/22 09:13:20;;;;;;;16.90;11.50;;;;;;;-0.25;85.55;99712.04;220842;1301;26055;-76
2023/11/22 09:18:23;;;;;;;16.60;11.50;;;;;;;-0.24;85.49;99723.17;220844;1282;22713;-78
2023/11/22 09:23:27;;;;;;;16.40;10.80;;;;;;;-0.24;85.33;99720.10;220645;1285;22571;-76
2023/11/22 09:28:29;;;;;;;15.40;9.00;;;;;;;-0.22;85.42;99705.79;220647;1304;22875;-77
2023/11/22 09:33:32;;;;;;;14.30;9.90;;;;;;;-0.13;85.14;99716.29;220820;1301;22559;-77
2023/11/22 09:38:34;;;;;;;15.40;9.90;;;;;;;-0.07;84.92;99730.11;220583;1296;22587;-77
2023/11/22 09:43:39;;;;;;;14.30;9.60;;;;;;;-0.03;85.04;99735.36;220783;1280;22614;-76
2023/11/22 09:48:45;;;;;;;11.50;7.00;;;;;;;0.01;84.57;99742.73;220900;1285;22592;-77
2023/11/22 09:54:08;;;;;;;11.20;7.70;;;;;;;0.04;84.35;99746.32;220823;1279;26102;-76
2023/11/22 09:59:14;;;;;;;10.10;7.10;;;;;;;0.10;84.68;99741.15;220867;1282;22715;-75
2023/11/22 10:04:16;;;;;;;10.90;7.00;;;;;;;0.13;84.14;99758.58;220896;1299;22569;-75
2023/11/22 10:09:19;;;;;;;11.90;7.20;;;;;;;0.15;84.41;99750.16;221144;1293;22585;-76
2023/11/22 10:14:27;;;;;;;10.50;6.30;;;;;;;0.18;84.24;99737.64;221256;1297;22666;-76
2023/11/22 10:19:29;;;;;;;10.30;6.70;;;;;;;0.22;84.13;99745.20;221259;1298;22618;-76
2023/11/22 10:24:35;;;;;;;11.40;7.40;;;;;;;0.21;83.65;99738.66;221100;1301;22583;-74
2023/11/22 10:29:39;;;;;;;11.20;7.70;;;;;;;0.23;83.90;99743.72;220904;1280;24347;-75
2023/11/22 10:34:41;;;;;;;12.40;7.60;;;;;;;0.22;83.45;99739.64;221079;1286;22610;-74
2023/11/22 10:39:50;;;;;;;11.50;7.70;;;;;;;0.20;83.50;99743.95;221068;1301;25369;-74
2023/11/22 10:44:58;;;;;;;9.60;6.80;;;;;;;0.19;83.23;99744.65;220961;1298;22591;-77
2023/11/22 10:50:01;;;;;;;12.20;8.90;;;;;;;0.18;83.17;99741.13;220937;1289;22570;-75
2023/11/22 10:55:05;;;;;;;14.20;9.80;;;;;;;0.12;83.03;99743.58;221063;1280;22705;-76
2023/11/22 11:00:13;;;;;;;13.50;10.50;;;;;;;0.08;82.86;99745.58;221160;1296;22599;-75
2023/11/22 11:05:20;;;;;;;12.20;9.90;;;;;;;0.09;83.22;99752.25;220967;1286;22888;-81
2023/11/22 11:10:49;;;;;;;12.90;8.60;;;;;;;0.14;82.93;99762.73;218953;1291;545043;-77
2023/11/22 11:15:53;;;;;;;18.70;11.50;;;;;;;0.15;83.03;99776.27;224216;1266;22625;-76
2023/11/22 11:21:00;;;;;;;19.20;12.50;;;;;;;0.16;82.84;99782.80;224070;1267;157886;-76
2023/11/22 11:26:15;;;;;;;15.60;11.50;;;;;;;0.15;82.47;99788.27;224295;1272;22548;-76
2023/11/22 11:31:22;;;;;;;16.10;10.50;;;;;;;0.09;82.38;99793.83;224309;1279;22697;-76
2023/11/22 11:36:31;;;;;;;15.70;10.80;;;;;;;0.06;82.31;99800.11;224254;1280;22584;-76
2023/11/22 11:41:37;;;;;;;17.90;13.40;;;;;;;0.03;82.05;99801.15;224324;1279;22715;-75
2023/11/22 11:46:39;;;;;;;12.60;9.30;;;;;;;0.04;82.55;99795.19;224215;1273;23141;-77
2023/11/22 11:51:42;;;;;;;9.80;7.40;;;;;;;-0.01;82.14;99798.46;224123;1283;25327;-76
2023/11/22 11:56:45;;;;;;;8.50;6.10;;;;;;;-0.03;82.21;99794.27;224273;1263;22568;-76
2023/11/22 12:01:53;;;;;;;15.80;10.40;;;;;;;0.03;82.45;99796.46;224090;1278;22595;-78
2023/11/22 12:06:58;;;;;;;17.90;12.00;;;;;;;0.07;82.42;99785.45;224465;1262;22588;-76
2023/11/22 12:12:02;;;;;;;15.10;10.60;;;;;;;0.07;82.45;99786.55;224396;1266;22663;-80
2023/11/22 12:17:05;;;;;;;15.40;11.40;;;;;;;0.02;82.08;99790.97;224351;1259;22596;-78
2023/11/22 12:22:08;;;;;;;15.30;10.60;;;;;;;-0.03;82.22;99802.22;224435;1262;23724;-77
2023/11/22 12:27:10;;;;;;;16.50;9.90;;;;;;;-0.07;82.22;99812.86;224460;1275;22536;-78
2023/11/22 12:32:12;;;;;;;15.10;10.10;;;;;;;-0.10;82.30;99817.52;224388;1266;22572;-75
2023/11/22 12:37:15;;;;;;;13.60;10.30;;;;;;;-0.12;82.06;99823.92;224324;1270;25460;-77
2023/11/22 12:42:17;;;;;;;14.30;10.00;;;;;;;-0.17;82.07;99826.77;224469;1263;22729;-76
2023/11/22 12:47:35;;;;;;;15.00;11.20;;;;;;;-0.24;81.80;99822.75;224326;1262;24816;-75
2023/11/22 12:52:39;;;;;;;15.00;10.30;;;;;;;-0.30;81.73;99819.01;224406;1260;22557;-74
2023/11/22 12:58:03;;;;;;;14.40;9.90;;;;;;;-0.31;81.99;99812.31;224414;1273;22604;-76
2023/11/22 13:03:10;;;;;;;15.20;11.40;;;;;;;-0.27;82.31;99808.02;224433;1261;24254;-73
2023/11/22 13:08:13;;;;;;;15.00;11.30;;;;;;;-0.21;82.19;99802.65;225188;1269;22558;-75
2023/11/22 13:13:15;;;;;;;18.20;13.40;;;;;;;-0.18;82.17;99813.52;224736;1261;25433;-74
2023/11/22 13:18:18;;;;;;;18.70;12.70;;;;;;;-0.20;81.91;99816.29;224830;1256;22556;-77
2023/11/22 13:23:21;;;;;;;18.80;11.80;;;;;;;-0.20;81.94;99823.05;224625;1272;24916;-75
2023/11/22 13:28:25;;;;;;;18.50;12.30;;;;;;;-0.19;81.91;99829.55;224872;1257;25430;-76
2023/11/22 13:33:28;;;;;;;19.80;13.90;;;;;;;-0.22;81.86;99829.52;224791;1259;22546;-76
2023/11/22 13:38:30;;;;;;;17.70;13.00;;;;;;;-0.19;82.11;99839.21;224877;1256;22606;-75
2023/11/22 13:43:33;;;;;;;18.60;13.20;;;;;;;-0.20;81.98;99849.15;224896;1272;24322;-75
2023/11/22 13:48:35;;;;;;;22.70;13.90;;;;;;;-0.20;81.91;99865.41;224810;1266;22610;-75
2023/11/22 13:53:42;;;;;;;27.80;17.00;;;;;;;-0.19;81.97;99857.59;224942;1262;22682;-76
2023/11/22 13:58:46;;;;;;;23.10;14.40;;;;;;;-0.16;82.14;99858.12;224835;1261;22575;-77
2023/11/22 14:03:48;;;;;;;22.60;14.40;;;;;;;-0.18;82.14;99885.90;224724;1256;23233;-74
2023/11/22 14:08:50;;;;;;;19.00;13.50;;;;;;;-0.18;81.78;99901.00;224582;1266;22574;-77
2023/11/22 14:13:53;;;;;;;20.80;14.20;;;;;;;-0.23;81.60;99888.64;224671;1272;24339;-76
2023/11/22 14:18:55;;;;;;;25.10;15.40;;;;;;;-0.26;81.97;99904.55;224729;1256;22546;-74
2023/11/22 14:23:57;;;;;;;19.30;13.30;;;;;;;-0.31;81.65;99920.78;224609;1266;22633;-75
2023/11/22 14:28:59;;;;;;;23.30;15.50;;;;;;;-0.40;81.54;99910.73;224756;1272;22527;-74
2023/11/22 14:34:05;;;;;;;22.10;13.90;;;;;;;-0.43;81.93;99896.55;224757;1275;22675;-74
2023/11/22 14:39:11;;;;;;;29.80;19.00;;;;;;;-0.44;82.05;99890.20;224690;1269;22557;-74
2023/11/22 14:44:14;;;;;;;29.90;19.10;;;;;;;-0.44;81.89;99893.84;224865;1272;24318;-77
2023/11/22 14:49:16;;;;;;;21.30;14.70;;;;;;;-0.45;82.00;99885.63;224902;1256;22639;-72
2023/11/22 14:54:18;;;;;;;24.00;15.10;;;;;;;-0.48;81.82;99882.52;224936;1259;22540;-74
2023/11/22 14:59:20;;;;;;;21.00;14.40;;;;;;;-0.49;81.87;99880.86;225515;1255;22547;-73
2023/11/22 15:04:24;;;;;;;21.50;13.30;;;;;;;-0.51;81.42;99870.43;225440;1269;25148;-73
2023/11/22 15:09:26;;;;;;;20.40;14.40;;;;;;;-0.56;81.44;99871.58;226197;1254;22550;-74
2023/11/22 15:14:28;;;;;;;20.90;14.70;;;;;;;-0.57;81.17;99880.43;225584;1269;22613;-73
2023/11/22 15:19:31;;;;;;;24.30;16.60;;;;;;;-0.58;81.07;99870.50;225724;1272;22714;-74
2023/11/22 15:24:33;;;;;;;24.80;16.60;;;;;;;-0.60;81.27;99872.36;225542;1253;22677;-73
2023/11/22 15:29:35;;;;;;;28.40;19.00;;;;;;;-0.60;81.42;99887.92;225770;1270;22562;-74
2023/11/22 15:34:37;;;;;;;26.90;17.60;;;;;;;-0.64;81.05;99900.41;226008;1273;22548;-73
2023/11/22 15:39:39;;;;;;;26.30;17.90;;;;;;;-0.60;80.98;99906.63;226039;1275;22609;-73
2023/11/22 15:44:41;;;;;;;23.60;15.90;;;;;;;-0.58;81.14;99888.48;226130;1272;22551;-73
2023/11/22 15:49:44;;;;;;;24.40;16.80;;;;;;;-0.59;81.08;99886.44;226048;1276;22540;-75
2023/11/22 15:54:47;;;;;;;23.00;17.30;;;;;;;-0.59;80.87;99881.30;226301;1276;22651;-74
2023/11/22 15:59:49;;;;;;;26.80;18.40;;;;;;;-0.58;80.96;99876.52;226215;1274;22557;-74
2023/11/22 16:04:51;;;;;;;25.00;16.60;;;;;;;-0.57;81.16;99867.15;226249;1268;22567;-74
2023/11/22 16:09:53;;;;;;;20.60;13.10;;;;;;;-0.59;80.69;99852.36;226293;1275;22546;-75
2023/11/22 16:14:55;;;;;;;25.60;17.90;;;;;;;-0.68;80.67;99840.98;226277;1272;22849;-75
2023/11/22 16:20:00;;;;;;;22.30;15.30;;;;;;;-0.67;80.83;99833.69;226273;1272;22568;-75
2023/11/22 16:25:02;;;;;;;25.70;16.80;;;;;;;-0.66;80.72;99839.85;226278;1276;22553;-74
2023/11/22 16:30:08;;;;;;;29.60;19.70;;;;;;;-0.63;81.13;99840.20;226260;1262;24216;-75
2023/11/22 16:35:11;;;;;;;31.20;22.30;;;;;;;-0.56;81.08;99840.98;226200;1274;22561;-74
2023/11/22 16:40:17;;;;;;;31.90;23.60;;;;;;;-0.53;80.70;99853.21;226152;1272;22551;-74
2023/11/22 16:45:19;;;;;;;26.70;18.30;;;;;;;-0.53;80.85;99864.14;226275;1276;24248;-75
2023/11/22 16:50:21;;;;;;;40.20;26.20;;;;;;;-0.53;80.58;99860.47;226257;1253;22589;-74
2023/11/22 16:55:23;;;;;;;33.00;23.40;;;;;;;-0.53;80.54;99879.70;226311;1272;22584;-75
2023/11/22 17:00:26;;;;;;;34.30;23.30;;;;;;;-0.53;80.39;99888.39;226251;1276;22546;-75
2023/11/22 17:05:28;;;;;;;30.90;22.00;;;;;;;-0.50;80.83;99908.59;226221;1272;22546;-75
2023/11/22 17:10:30;;;;;;;39.30;26.40;;;;;;;-0.47;80.92;99916.18;226270;1272;22549;-74
2023/11/22 17:15:48;;;;;;;33.80;24.50;;;;;;;-0.44;80.56;99915.98;226272;1272;22598;-75
2023/11/22 17:20:50;;;;;;;35.90;25.40;;;;;;;-0.42;80.91;99922.27;226119;1276;25335;-74
2023/11/22 17:25:52;;;;;;;38.20;25.60;;;;;;;-0.40;80.73;99941.02;226287;1274;22556;-76
2023/11/22 17:30:57;;;;;;;29.90;20.40;;;;;;;-0.38;80.50;99929.51;226174;1275;24415;-72
2023/11/22 17:36:00;;;;;;;28.50;20.00;;;;;;;-0.38;80.34;99912.38;226234;1276;22550;-75
2023/11/22 17:41:02;;;;;;;26.00;18.20;;;;;;;-0.40;80.21;99908.33;226062;1276;23029;-74
2023/11/22 17:46:07;;;;;;;25.30;16.60;;;;;;;-0.42;79.79;99894.41;226199;1276;22577;-74
2023/11/22 17:51:09;;;;;;;23.30;15.90;;;;;;;-0.44;80.05;99893.88;226221;1275;22551;-75
2023/11/22 17:56:11;;;;;;;86.90;60.40;;;;;;;-0.47;79.81;99899.61;226159;1275;22557;-75
2023/11/22 18:01:13;;;;;;;27.80;19.00;;;;;;;-0.48;80.13;99912.29;226274;1272;22613;-75
2023/11/22 18:06:19;;;;;;;26.90;19.10;;;;;;;-0.49;80.05;99910.59;226133;1273;22536;-75
2023/11/22 18:11:29;;;;;;;26.10;16.70;;;;;;;-0.52;79.98;99912.36;226125;1272;23109;-76
2023/11/22 18:16:34;;;;;;;21.40;15.60;;;;;;;-0.58;79.72;99934.66;226061;1276;22539;-76
2023/11/22 18:21:39;;;;;;;22.80;16.30;;;;;;;-0.61;79.69;99934.69;226276;1272;22663;-75
2023/11/22 18:26:43;;;;;;;28.30;19.60;;;;;;;-0.66;79.14;99921.64;226215;1272;22561;-74
2023/11/22 18:31:46;;;;;;;24.60;16.60;;;;;;;-0.64;79.33;99927.95;226244;1272;22576;-75
2023/11/22 18:36:48;;;;;;;23.30;16.30;;;;;;;-0.61;79.45;99924.83;226125;1276;24507;-74
2023/11/22 18:41:52;;;;;;;30.30;17.20;;;;;;;-0.59;79.47;99913.27;226256;1272;22666;-75
2023/11/22 18:46:57;;;;;;;22.70;16.30;;;;;;;-0.60;79.60;99890.90;226295;1276;22625;-75
2023/11/22 18:51:59;;;;;;;25.10;17.30;;;;;;;-0.60;79.57;99884.62;226253;1276;22664;-75
2023/11/22 18:57:04;;;;;;;25.50;17.50;;;;;;;-0.59;79.34;99890.41;226244;1272;24127;-75
2023/11/22 19:02:12;;;;;;;26.10;16.10;;;;;;;-0.57;79.47;99876.48;226229;1275;25290;-76
2023/11/22 19:07:14;;;;;;;23.10;15.70;;;;;;;-0.58;79.48;99865.29;226217;1276;22773;-75
2023/11/22 19:12:22;;;;;;;29.30;17.30;;;;;;;-0.63;79.12;99870.98;226121;1275;24388;-75
2023/11/22 19:17:28;;;;;;;27.30;17.80;;;;;;;-0.68;79.24;99883.05;226272;1276;22996;-75
2023/11/22 19:22:32;;;;;;;25.00;16.50;;;;;;;-0.72;79.27;99884.63;226300;1272;22538;-75
2023/11/22 19:27:36;;;;;;;27.30;17.90;;;;;;;-0.75;79.38;99882.89;226320;1275;23726;-74
2023/11/22 19:32:40;;;;;;;23.80;18.00;;;;;;;-0.77;79.64;99875.27;226276;1276;22539;-74
2023/11/22 19:37:42;;;;;;;27.00;18.60;;;;;;;-0.80;79.40;99887.52;226304;1256;22592;-74
2023/11/22 19:42:44;;;;;;;25.70;18.80;;;;;;;-0.80;79.74;99878.89;226060;1276;22652;-75
2023/11/22 19:47:47;;;;;;;26.50;18.00;;;;;;;-0.81;79.89;99886.04;226273;1272;22547;-75
2023/11/22 19:52:49;;;;;;;31.90;20.50;;;;;;;-0.84;79.99;99875.33;226192;1272;22539;-75
2023/11/22 19:57:52;;;;;;;26.40;17.00;;;;;;;-0.85;79.94;99864.29;226159;1275;22576;-75
2023/11/22 20:02:54;;;;;;;24.30;17.20;;;;;;;-0.88;79.64;99847.19;226104;1268;22589;-75
2023/11/22 20:07:58;;;;;;;20.40;15.00;;;;;;;-0.88;80.02;99845.97;226033;1276;22551;-74
2023/11/22 20:13:00;;;;;;;23.50;15.40;;;;;;;-0.91;79.63;99838.38;226210;1266;22566;-75
2023/11/22 20:18:02;;;;;;;22.80;14.90;;;;;;;-0.94;79.97;99837.88;226307;1273;22907;-74
2023/11/22 20:23:06;;;;;;;21.60;15.20;;;;;;;-0.95;79.89;99845.00;226260;1275;22575;-74
2023/11/22 20:28:08;;;;;;;23.80;16.30;;;;;;;-0.97;79.74;99813.47;226285;1272;22732;-74
2023/11/22 20:33:11;;;;;;;26.50;17.80;;;;;;;-0.99;80.15;99821.42;226331;1270;22556;-74
2023/11/22 20:38:14;;;;;;;22.60;16.20;;;;;;;-1.01;79.87;99832.56;226295;1272;24347;-75
2023/11/22 20:43:16;;;;;;;20.80;14.50;;;;;;;-0.99;80.36;99844.00;226102;1275;22575;-75
2023/11/22 20:48:18;;;;;;;22.70;15.50;;;;;;;-0.94;80.42;99825.94;226146;1275;22551;-75
2023/11/22 20:53:20;;;;;;;18.50;12.70;;;;;;;-0.95;80.12;99797.10;226210;1264;22595;-77
2023/11/22 20:58:22;;;;;;;21.00;14.00;;;;;;;-0.99;80.10;99776.10;226137;1276;22541;-74
2023/11/22 21:03:25;;;;;;;19.50;12.90;;;;;;;-1.08;79.80;99760.56;226063;1276;22558;-74
2023/11/22 21:08:28;;;;;;;22.80;15.40;;;;;;;-1.18;79.43;99761.64;226126;1275;22554;-75
2023/11/22 21:13:31;;;;;;;22.50;15.90;;;;;;;-1.19;80.09;99758.56;226088;1275;22523;-75
2023/11/22 21:18:33;;;;;;;25.40;16.10;;;;;;;-1.18;80.01;99756.27;226109;1272;25344;-74
2023/11/22 21:23:35;;;;;;;28.10;17.90;;;;;;;-1.22;80.26;99755.32;226197;1274;22538;-75
2023/11/22 21:28:37;;;;;;;22.40;15.50;;;;;;;-1.19;80.74;99743.77;226246;1275;22587;-75
2023/11/22 21:33:39;;;;;;;36.70;23.10;;;;;;;-1.19;80.50;99734.59;226079;1276;24272;-75
2023/11/22 21:38:44;;;;;;;35.90;23.10;;;;;;;-1.19;80.49;99729.08;226200;1276;23355;-74
2023/11/22 21:43:46;;;;;;;32.30;22.20;;;;;;;-1.24;80.50;99728.65;226039;1275;22650;-74
2023/11/22 21:48:48;;;;;;;39.90;25.40;;;;;;;-1.30;80.61;99728.81;226244;1274;22561;-75
2023/11/22 21:53:50;;;;;;;38.80;25.00;;;;;;;-1.31;80.63;99728.55;226219;1272;22618;-75
2023/11/22 21:58:52;;;;;;;46.50;27.80;;;;;;;-1.27;80.83;99744.23;226222;1276;22820;-74
2023/11/22 22:03:55;;;;;;;39.70;25.70;;;;;;;-1.22;81.12;99747.37;226293;1275;22541;-75
2023/11/22 22:08:57;;;;;;;42.80;26.80;;;;;;;-1.20;80.86;99737.24;226258;1276;22567;-75
2023/11/22 22:13:59;;;;;;;43.80;26.60;;;;;;;-1.22;81.06;99730.95;226345;1275;26249;-75
2023/11/22 22:19:03;;;;;;;39.60;24.90;;;;;;;-1.24;81.18;99723.48;226172;1275;22555;-75
2023/11/22 22:24:08;;;;;;;42.50;26.80;;;;;;;-1.26;81.18;99709.77;226205;1275;24119;-74
2023/11/22 22:29:11;;;;;;;46.20;28.40;;;;;;;-1.26;81.13;99702.31;226325;1273;24358;-74
2023/11/22 22:34:13;;;;;;;44.00;26.60;;;;;;;-1.23;81.36;99700.45;226302;1276;24695;-74
2023/11/22 22:39:15;;;;;;;41.90;26.20;;;;;;;-1.23;81.26;99684.67;226217;1272;25529;-74
2023/11/22 22:44:17;;;;;;;41.40;26.00;;;;;;;-1.24;81.52;99669.22;226310;1276;22593;-74
2023/11/22 22:49:19;;;;;;;43.10;26.40;;;;;;;-1.29;81.69;99675.02;226290;1266;22630;-75
2023/11/22 22:54:22;;;;;;;33.30;20.70;;;;;;;-1.26;81.78;99685.94;226172;1266;22544;-75
2023/11/22 22:59:24;;;;;;;40.00;24.20;;;;;;;-1.24;81.96;99682.84;226261;1276;22531;-74
2023/11/22 23:04:26;;;;;;;37.40;23.60;;;;;;;-1.22;81.63;99678.44;226164;1276;22697;-74